sensor_id;sensor_type;location;lat;lon;timestamp;pressure;altitude;pressure_sealevel;temperature;humidity
18985;BME280;9626;52.552;13.436;2022-07-17T00:00:41;101865.28;;;13.94;81.05
18985;BME280;9626;52.552;13.436;2022-07-17T00:03:12;101860.94;;;13.87;81.34
18985;BME280;9626;52.552;13.436;2022-07-17T00:05:38;101858.38;;;13.81;81.79
18985;BME280;9626;52.552;13.436;2022-07-17T00:08:07;101861.94;;;13.78;81.90
18985;BME280;9626;52.552;13.436;2022-07-17T00:10:37;101861.13;;;13.75;82.23
18985;BME280;9626;52.552;13.436;2022-07-17T00:13:03;101863.84;;;13.70;82.36
18985;BME280;9626;52.552;13.436;2022-07-17T00:15:30;101853.19;;;13.70;82.76
18985;BME280;9626;52.552;13.436;2022-07-17T00:17:56;101865.66;;;13.68;82.63
18985;BME280;9626;52.552;13.436;2022-07-17T00:20:22;101860.41;;;13.62;83.52
18985;BME280;9626;52.552;13.436;2022-07-17T00:22:53;101863.09;;;13.60;83.72
18985;BME280;9626;52.552;13.436;2022-07-17T00:25:21;101870.25;;;13.57;83.80
18985;BME280;9626;52.552;13.436;2022-07-17T00:27:46;101866.69;;;13.56;84.69
18985;BME280;9626;52.552;13.436;2022-07-17T00:30:13;101871.16;;;13.54;84.31
18985;BME280;9626;52.552;13.436;2022-07-17T00:32:39;101867.72;;;13.47;84.84
18985;BME280;9626;52.552;13.436;2022-07-17T00:35:05;101869.47;;;13.48;85.28
18985;BME280;9626;52.552;13.436;2022-07-17T00:37:40;101868.63;;;13.45;85.24
18985;BME280;9626;52.552;13.436;2022-07-17T00:40:07;101871.28;;;13.45;85.85
18985;BME280;9626;52.552;13.436;2022-07-17T00:42:33;101861.53;;;13.44;86.00
18985;BME280;9626;52.552;13.436;2022-07-17T00:44:59;101866.84;;;13.44;85.77
18985;BME280;9626;52.552;13.436;2022-07-17T00:47:24;101866.00;;;13.40;86.16
18985;BME280;9626;52.552;13.436;2022-07-17T00:49:50;101864.28;;;13.33;86.91
18985;BME280;9626;52.552;13.436;2022-07-17T00:52:16;101861.63;;;13.33;86.94
18985;BME280;9626;52.552;13.436;2022-07-17T00:54:43;101859.91;;;13.29;87.27
18985;BME280;9626;52.552;13.436;2022-07-17T00:57:11;101861.72;;;13.27;87.74
18985;BME280;9626;52.552;13.436;2022-07-17T00:59:37;101862.63;;;13.26;87.91
18985;BME280;9626;52.552;13.436;2022-07-17T01:02:06;101859.09;;;13.22;87.95
18985;BME280;9626;52.552;13.436;2022-07-17T01:04:32;101865.31;;;13.23;88.33
18985;BME280;9626;52.552;13.436;2022-07-17T01:06:59;101859.06;;;13.27;88.62
18985;BME280;9626;52.552;13.436;2022-07-17T01:09:25;101858.25;;;13.22;88.09
18985;BME280;9626;52.552;13.436;2022-07-17T01:11:51;101857.41;;;13.16;89.26
18985;BME280;9626;52.552;13.436;2022-07-17T01:14:16;101857.50;;;13.10;89.01
18985;BME280;9626;52.552;13.436;2022-07-17T01:16:43;101855.72;;;13.09;89.17
18985;BME280;9626;52.552;13.436;2022-07-17T01:19:10;101856.63;;;13.08;89.49
18985;BME280;9626;52.552;13.436;2022-07-17T01:21:38;101861.09;;;13.03;89.52
18985;BME280;9626;52.552;13.436;2022-07-17T01:24:05;101859.41;;;12.96;90.18
18985;BME280;9626;52.552;13.436;2022-07-17T01:26:31;101855.97;;;12.88;90.72
18985;BME280;9626;52.552;13.436;2022-07-17T01:28:57;101850.66;;;12.86;91.17
18985;BME280;9626;52.552;13.436;2022-07-17T01:31:22;101854.16;;;12.93;91.14
18985;BME280;9626;52.552;13.436;2022-07-17T01:33:48;101852.31;;;12.98;91.20
18985;BME280;9626;52.552;13.436;2022-07-17T01:36:14;101858.41;;;13.08;90.20
18985;BME280;9626;52.552;13.436;2022-07-17T01:38:39;101856.75;;;12.96;90.57
18985;BME280;9626;52.552;13.436;2022-07-17T01:41:05;101853.31;;;12.86;91.58
18985;BME280;9626;52.552;13.436;2022-07-17T01:43:31;101860.53;;;12.73;92.56
18985;BME280;9626;52.552;13.436;2022-07-17T01:45:56;101849.97;;;12.67;93.54
18985;BME280;9626;52.552;13.436;2022-07-17T01:48:28;101846.47;;;12.62;94.16
18985;BME280;9626;52.552;13.436;2022-07-17T01:50:55;101850.03;;;12.61;94.42
18985;BME280;9626;52.552;13.436;2022-07-17T01:53:20;101857.13;;;12.60;94.39
18985;BME280;9626;52.552;13.436;2022-07-17T01:55:47;101854.50;;;12.59;94.09
18985;BME280;9626;52.552;13.436;2022-07-17T01:58:13;101853.69;;;12.50;94.38
18985;BME280;9626;52.552;13.436;2022-07-17T02:00:39;101851.94;;;12.48;93.74
18985;BME280;9626;52.552;13.436;2022-07-17T02:03:04;101851.97;;;12.40;94.16
18985;BME280;9626;52.552;13.436;2022-07-17T02:05:30;101844.06;;;12.36;94.96
18985;BME280;9626;52.552;13.436;2022-07-17T02:07:55;101853.69;;;12.49;94.43
18985;BME280;9626;52.552;13.436;2022-07-17T02:10:21;101851.03;;;12.47;93.44
18985;BME280;9626;52.552;13.436;2022-07-17T02:12:46;101852.94;;;12.34;93.82
18985;BME280;9626;52.552;13.436;2022-07-17T02:15:12;101850.22;;;12.38;94.77
18985;BME280;9626;52.552;13.436;2022-07-17T02:17:39;101852.00;;;12.39;94.10
18985;BME280;9626;52.552;13.436;2022-07-17T02:20:06;101853.78;;;12.35;94.35
18985;BME280;9626;52.552;13.436;2022-07-17T02:22:32;101852.09;;;12.28;95.03
18985;BME280;9626;52.552;13.436;2022-07-17T02:24:58;101846.81;;;12.25;95.44
18985;BME280;9626;52.552;13.436;2022-07-17T02:27:24;101851.31;;;12.16;96.08
18985;BME280;9626;52.552;13.436;2022-07-17T02:29:49;101842.47;;;12.14;96.45
18985;BME280;9626;52.552;13.436;2022-07-17T02:32:15;101849.59;;;12.08;97.41
18985;BME280;9626;52.552;13.436;2022-07-17T02:34:40;101852.25;;;12.06;98.08
18985;BME280;9626;52.552;13.436;2022-07-17T02:37:06;101846.09;;;12.04;97.98
18985;BME280;9626;52.552;13.436;2022-07-17T02:39:31;101850.50;;;12.04;98.26
18985;BME280;9626;52.552;13.436;2022-07-17T02:41:57;101847.91;;;11.99;99.08
18985;BME280;9626;52.552;13.436;2022-07-17T02:44:23;101856.72;;;12.01;99.36
18985;BME280;9626;52.552;13.436;2022-07-17T02:46:48;101860.25;;;12.03;99.27
18985;BME280;9626;52.552;13.436;2022-07-17T02:49:14;101861.13;;;12.07;99.34
18985;BME280;9626;52.552;13.436;2022-07-17T02:51:40;101858.44;;;12.05;98.81
18985;BME280;9626;52.552;13.436;2022-07-17T02:54:06;101862.06;;;11.89;100.00
18985;BME280;9626;52.552;13.436;2022-07-17T02:56:31;101861.25;;;11.79;100.00
18985;BME280;9626;52.552;13.436;2022-07-17T02:58:57;101872.81;;;11.70;100.00
18985;BME280;9626;52.552;13.436;2022-07-17T03:01:22;101871.03;;;11.69;100.00
18985;BME280;9626;52.552;13.436;2022-07-17T03:03:48;101872.84;;;11.64;100.00
18985;BME280;9626;52.552;13.436;2022-07-17T03:06:13;101877.16;;;11.82;100.00
18985;BME280;9626;52.552;13.436;2022-07-17T03:08:39;101878.00;;;11.95;100.00
18985;BME280;9626;52.552;13.436;2022-07-17T03:11:04;101870.84;;;12.06;100.00
18985;BME280;9626;52.552;13.436;2022-07-17T03:13:30;101876.22;;;11.98;99.95
18985;BME280;9626;52.552;13.436;2022-07-17T03:15:55;101876.34;;;11.75;100.00
18985;BME280;9626;52.552;13.436;2022-07-17T03:18:21;101864.81;;;11.76;100.00
18985;BME280;9626;52.552;13.436;2022-07-17T03:20:46;101872.75;;;11.82;100.00
18985;BME280;9626;52.552;13.436;2022-07-17T03:23:12;101869.97;;;12.04;100.00
18985;BME280;9626;52.552;13.436;2022-07-17T03:25:37;101874.34;;;12.11;100.00
18985;BME280;9626;52.552;13.436;2022-07-17T03:28:03;101879.75;;;11.99;100.00
18985;BME280;9626;52.552;13.436;2022-07-17T03:30:29;101875.31;;;11.98;100.00
18985;BME280;9626;52.552;13.436;2022-07-17T03:32:54;101883.31;;;11.95;100.00
18985;BME280;9626;52.552;13.436;2022-07-17T03:35:20;101882.44;;;11.94;100.00
18985;BME280;9626;52.552;13.436;2022-07-17T03:37:45;101895.69;;;11.96;100.00
18985;BME280;9626;52.552;13.436;2022-07-17T03:40:11;101892.16;;;11.98;100.00
18985;BME280;9626;52.552;13.436;2022-07-17T03:42:37;101897.44;;;12.00;100.00
18985;BME280;9626;52.552;13.436;2022-07-17T03:45:03;101902.78;;;11.91;100.00
18985;BME280;9626;52.552;13.436;2022-07-17T03:47:28;101910.75;;;11.86;100.00
18985;BME280;9626;52.552;13.436;2022-07-17T03:49:54;101911.72;;;11.70;100.00
18985;BME280;9626;52.552;13.436;2022-07-17T03:52:19;101911.75;;;11.59;100.00
18985;BME280;9626;52.552;13.436;2022-07-17T03:54:45;101914.47;;;11.53;100.00
18985;BME280;9626;52.552;13.436;2022-07-17T03:57:10;101918.88;;;11.54;100.00
18985;BME280;9626;52.552;13.436;2022-07-17T03:59:36;101924.16;;;11.57;100.00
18985;BME280;9626;52.552;13.436;2022-07-17T04:02:01;101922.41;;;11.46;100.00
18985;BME280;9626;52.552;13.436;2022-07-17T04:04:27;101921.56;;;11.44;100.00
18985;BME280;9626;52.552;13.436;2022-07-17T04:06:53;101926.88;;;11.44;100.00
18985;BME280;9626;52.552;13.436;2022-07-17T04:09:18;101931.28;;;11.45;100.00
18985;BME280;9626;52.552;13.436;2022-07-17T04:11:43;101932.19;;;11.41;100.00
18985;BME280;9626;52.552;13.436;2022-07-17T04:14:09;101936.59;;;11.42;100.00
18985;BME280;9626;52.552;13.436;2022-07-17T04:16:34;101945.44;;;11.41;100.00
18985;BME280;9626;52.552;13.436;2022-07-17T04:19:00;101941.88;;;11.42;100.00
18985;BME280;9626;52.552;13.436;2022-07-17T04:21:26;101954.25;;;11.53;100.00
18985;BME280;9626;52.552;13.436;2022-07-17T04:23:51;101945.38;;;11.60;100.00
18985;BME280;9626;52.552;13.436;2022-07-17T04:26:16;101946.25;;;11.63;100.00
18985;BME280;9626;52.552;13.436;2022-07-17T04:28:42;101940.91;;;11.66;100.00
18985;BME280;9626;52.552;13.436;2022-07-17T04:31:08;101951.50;;;11.76;100.00
18985;BME280;9626;52.552;13.436;2022-07-17T04:33:33;101946.16;;;11.79;100.00
18985;BME280;9626;52.552;13.436;2022-07-17T04:35:59;101941.75;;;11.82;100.00
18985;BME280;9626;52.552;13.436;2022-07-17T04:38:24;101947.91;;;11.88;100.00
18985;BME280;9626;52.552;13.436;2022-07-17T04:40:50;101947.88;;;11.92;100.00
18985;BME280;9626;52.552;13.436;2022-07-17T04:43:15;101955.84;;;11.97;100.00
18985;BME280;9626;52.552;13.436;2022-07-17T04:45:41;101952.28;;;12.04;100.00
18985;BME280;9626;52.552;13.436;2022-07-17T04:48:06;101951.34;;;12.11;100.00
18985;BME280;9626;52.552;13.436;2022-07-17T04:50:32;101958.44;;;12.12;100.00
18985;BME280;9626;52.552;13.436;2022-07-17T04:53:22;101961.03;;;12.22;100.00
18985;BME280;9626;52.552;13.436;2022-07-17T04:55:48;101956.56;;;12.25;100.00
18985;BME280;9626;52.552;13.436;2022-07-17T04:58:13;101957.41;;;12.32;100.00
18985;BME280;9626;52.552;13.436;2022-07-17T05:00:39;101952.06;;;12.38;100.00
18985;BME280;9626;52.552;13.436;2022-07-17T05:03:04;101963.47;;;12.49;100.00
18985;BME280;9626;52.552;13.436;2022-07-17T05:05:30;101966.97;;;12.58;100.00
18985;BME280;9626;52.552;13.436;2022-07-17T05:07:55;101967.78;;;12.66;100.00
18985;BME280;9626;52.552;13.436;2022-07-17T05:10:21;101960.66;;;12.71;100.00
18985;BME280;9626;52.552;13.436;2022-07-17T05:12:47;101961.50;;;12.76;100.00
18985;BME280;9626;52.552;13.436;2022-07-17T05:15:12;101953.47;;;12.82;100.00
18985;BME280;9626;52.552;13.436;2022-07-17T05:17:38;101949.84;;;12.90;100.00
18985;BME280;9626;52.552;13.436;2022-07-17T05:20:04;101954.19;;;13.01;99.34
18985;BME280;9626;52.552;13.436;2022-07-17T05:22:30;101959.44;;;13.08;99.14
18985;BME280;9626;52.552;13.436;2022-07-17T05:24:55;101961.19;;;13.10;98.73
18985;BME280;9626;52.552;13.436;2022-07-17T05:27:21;101960.25;;;13.16;97.73
18985;BME280;9626;52.552;13.436;2022-07-17T05:29:47;101956.59;;;13.25;97.25
18985;BME280;9626;52.552;13.436;2022-07-17T05:32:12;101962.81;;;13.25;94.73
18985;BME280;9626;52.552;13.436;2022-07-17T05:34:38;101965.38;;;13.33;94.27
18985;BME280;9626;52.552;13.436;2022-07-17T05:37:03;101960.91;;;13.40;93.48
18985;BME280;9626;52.552;13.436;2022-07-17T05:39:29;101971.44;;;13.50;92.05
18985;BME280;9626;52.552;13.436;2022-07-17T05:41:54;101971.34;;;13.58;90.83
18985;BME280;9626;52.552;13.436;2022-07-17T05:44:20;101978.31;;;13.67;90.21
18985;BME280;9626;52.552;13.436;2022-07-17T05:46:45;101981.84;;;13.71;89.92
18985;BME280;9626;52.552;13.436;2022-07-17T05:49:11;101983.59;;;13.73;89.18
18985;BME280;9626;52.552;13.436;2022-07-17T05:51:36;101983.53;;;13.78;88.79
18985;BME280;9626;52.552;13.436;2022-07-17T05:54:02;101987.78;;;13.93;88.33
18985;BME280;9626;52.552;13.436;2022-07-17T05:56:28;101994.81;;;13.97;88.13
18985;BME280;9626;52.552;13.436;2022-07-17T05:58:53;101988.31;;;14.16;85.60
18985;BME280;9626;52.552;13.436;2022-07-17T06:01:19;102000.63;;;14.27;84.69
18985;BME280;9626;52.552;13.436;2022-07-17T06:03:44;101996.16;;;14.29;83.74
18985;BME280;9626;52.552;13.436;2022-07-17T06:06:10;102001.47;;;14.29;83.21
18985;BME280;9626;52.552;13.436;2022-07-17T06:08:35;102004.03;;;14.36;82.81
18985;BME280;9626;52.552;13.436;2022-07-17T06:11:01;102001.38;;;14.36;81.73
18985;BME280;9626;52.552;13.436;2022-07-17T06:13:26;102008.50;;;14.36;82.09
18985;BME280;9626;52.552;13.436;2022-07-17T06:15:52;102007.38;;;14.51;82.18
18985;BME280;9626;52.552;13.436;2022-07-17T06:18:17;102003.13;;;14.39;81.59
18985;BME280;9626;52.552;13.436;2022-07-17T06:20:43;101998.50;;;14.52;82.10
18985;BME280;9626;52.552;13.436;2022-07-17T06:23:08;101999.00;;;14.77;80.47
18985;BME280;9626;52.552;13.436;2022-07-17T06:25:34;101998.16;;;14.75;79.08
18985;BME280;9626;52.552;13.436;2022-07-17T06:27:59;101996.09;;;14.91;78.73
18985;BME280;9626;52.552;13.436;2022-07-17T06:30:25;101999.94;;;14.75;77.85
18985;BME280;9626;52.552;13.436;2022-07-17T06:32:50;102000.84;;;14.75;78.37
18985;BME280;9626;52.552;13.436;2022-07-17T06:35:16;101995.66;;;14.64;78.41
18985;BME280;9626;52.552;13.436;2022-07-17T06:37:41;102002.47;;;14.82;77.48
18985;BME280;9626;52.552;13.436;2022-07-17T06:40:07;101996.88;;;14.98;76.67
18985;BME280;9626;52.552;13.436;2022-07-17T06:42:33;101997.59;;;15.08;75.05
18985;BME280;9626;52.552;13.436;2022-07-17T06:44:59;102004.63;;;15.12;75.01
18985;BME280;9626;52.552;13.436;2022-07-17T06:47:24;101996.72;;;15.07;74.96
18985;BME280;9626;52.552;13.436;2022-07-17T06:49:50;102011.09;;;15.00;75.20
18985;BME280;9626;52.552;13.436;2022-07-17T06:52:15;102012.78;;;15.04;74.97
18985;BME280;9626;52.552;13.436;2022-07-17T06:54:41;102006.75;;;14.93;74.77
18985;BME280;9626;52.552;13.436;2022-07-17T06:57:06;102013.78;;;14.97;73.61
18985;BME280;9626;52.552;13.436;2022-07-17T06:59:33;102015.88;;;14.79;74.54
18985;BME280;9626;52.552;13.436;2022-07-17T07:01:58;102011.31;;;14.84;75.90
18985;BME280;9626;52.552;13.436;2022-07-17T07:04:24;102011.94;;;15.00;75.69
18985;BME280;9626;52.552;13.436;2022-07-17T07:06:49;102012.66;;;15.10;75.11
18985;BME280;9626;52.552;13.436;2022-07-17T07:09:15;102021.78;;;14.98;75.02
18985;BME280;9626;52.552;13.436;2022-07-17T07:11:40;102018.41;;;14.85;75.70
18985;BME280;9626;52.552;13.436;2022-07-17T07:14:06;102028.88;;;14.98;75.89
18985;BME280;9626;52.552;13.436;2022-07-17T07:16:33;102028.03;;;14.94;75.47
18985;BME280;9626;52.552;13.436;2022-07-17T07:18:58;102030.63;;;15.00;76.04
18985;BME280;9626;52.552;13.436;2022-07-17T07:21:24;102032.38;;;15.01;75.99
18985;BME280;9626;52.552;13.436;2022-07-17T07:23:52;102031.25;;;15.16;75.30
18985;BME280;9626;52.552;13.436;2022-07-17T07:26:17;102031.50;;;15.02;75.10
18985;BME280;9626;52.552;13.436;2022-07-17T07:28:43;102041.00;;;15.17;75.10
18985;BME280;9626;52.552;13.436;2022-07-17T07:31:08;102033.63;;;15.32;74.94
18985;BME280;9626;52.552;13.436;2022-07-17T07:33:36;102023.69;;;15.40;74.52
18985;BME280;9626;52.552;13.436;2022-07-17T07:36:01;102030.06;;;15.33;74.33
18985;BME280;9626;52.552;13.436;2022-07-17T07:38:27;102030.00;;;15.36;74.38
18985;BME280;9626;52.552;13.436;2022-07-17T07:40:52;102030.78;;;15.41;74.76
18985;BME280;9626;52.552;13.436;2022-07-17T07:43:18;102029.59;;;15.58;74.07
18985;BME280;9626;52.552;13.436;2022-07-17T07:45:43;102031.19;;;15.66;73.84
18985;BME280;9626;52.552;13.436;2022-07-17T07:48:09;102038.50;;;15.57;74.24
18985;BME280;9626;52.552;13.436;2022-07-17T07:50:35;102035.44;;;15.31;75.17
18985;BME280;9626;52.552;13.436;2022-07-17T07:53:00;102038.91;;;15.35;76.03
18985;BME280;9626;52.552;13.436;2022-07-17T07:55:26;102037.81;;;15.47;75.37
18985;BME280;9626;52.552;13.436;2022-07-17T07:58:02;102044.59;;;15.16;76.56
18985;BME280;9626;52.552;13.436;2022-07-17T08:00:28;102039.13;;;15.23;76.66
18985;BME280;9626;52.552;13.436;2022-07-17T08:02:54;102038.88;;;15.36;76.10
18985;BME280;9626;52.552;13.436;2022-07-17T08:05:19;102048.00;;;15.25;76.34
18985;BME280;9626;52.552;13.436;2022-07-17T08:07:45;102048.06;;;15.21;76.95
18985;BME280;9626;52.552;13.436;2022-07-17T08:10:10;102050.03;;;15.09;77.70
18985;BME280;9626;52.552;13.436;2022-07-17T08:12:36;102050.66;;;15.25;77.81
18985;BME280;9626;52.552;13.436;2022-07-17T08:15:01;102046.13;;;15.30;76.30
18985;BME280;9626;52.552;13.436;2022-07-17T08:17:27;102049.75;;;15.26;76.75
18985;BME280;9626;52.552;13.436;2022-07-17T08:19:52;102049.91;;;15.16;77.49
18985;BME280;9626;52.552;13.436;2022-07-17T08:22:18;102056.25;;;15.09;77.51
18985;BME280;9626;52.552;13.436;2022-07-17T08:24:43;102052.84;;;14.99;78.30
18985;BME280;9626;52.552;13.436;2022-07-17T08:27:09;102059.75;;;15.13;78.41
18985;BME280;9626;52.552;13.436;2022-07-17T08:29:34;102056.25;;;15.11;78.86
18985;BME280;9626;52.552;13.436;2022-07-17T08:31:59;102054.13;;;15.28;78.56
18985;BME280;9626;52.552;13.436;2022-07-17T08:34:25;102054.88;;;15.38;77.56
18985;BME280;9626;52.552;13.436;2022-07-17T08:36:50;102060.03;;;15.47;76.86
18985;BME280;9626;52.552;13.436;2022-07-17T08:39:17;102061.59;;;15.59;75.29
18985;BME280;9626;52.552;13.436;2022-07-17T08:41:42;102052.81;;;15.52;76.13
18985;BME280;9626;52.552;13.436;2022-07-17T08:44:08;102053.91;;;15.91;74.29
18985;BME280;9626;52.552;13.436;2022-07-17T08:46:36;102059.63;;;16.16;72.92
18985;BME280;9626;52.552;13.436;2022-07-17T08:49:03;102057.69;;;16.22;73.38
18985;BME280;9626;52.552;13.436;2022-07-17T08:51:29;102063.16;;;16.16;72.67
18985;BME280;9626;52.552;13.436;2022-07-17T08:53:56;102060.41;;;16.19;72.59
18985;BME280;9626;52.552;13.436;2022-07-17T08:56:21;102060.28;;;16.26;72.72
18985;BME280;9626;52.552;13.436;2022-07-17T08:58:47;102060.28;;;16.26;72.83
18985;BME280;9626;52.552;13.436;2022-07-17T09:01:14;102072.69;;;16.30;71.59
18985;BME280;9626;52.552;13.436;2022-07-17T09:03:40;102070.47;;;16.08;71.88
18985;BME280;9626;52.552;13.436;2022-07-17T09:06:22;102073.81;;;16.18;72.36
18985;BME280;9626;52.552;13.436;2022-07-17T09:08:48;102064.44;;;16.41;72.04
18985;BME280;9626;52.552;13.436;2022-07-17T09:11:13;102072.25;;;16.48;70.91
18985;BME280;9626;52.552;13.436;2022-07-17T09:13:45;102078.09;;;16.27;69.51
18985;BME280;9626;52.552;13.436;2022-07-17T09:16:12;102069.41;;;16.56;69.83
18985;BME280;9626;52.552;13.436;2022-07-17T09:18:45;102079.78;;;17.09;67.47
18985;BME280;9626;52.552;13.436;2022-07-17T09:21:20;102066.97;;;17.56;64.37
18985;BME280;9626;52.552;13.436;2022-07-17T09:24:00;102069.03;;;18.11;63.66
18985;BME280;9626;52.552;13.436;2022-07-17T09:26:27;102071.25;;;18.27;62.59
18985;BME280;9626;52.552;13.436;2022-07-17T09:28:53;102066.03;;;18.52;60.70
18985;BME280;9626;52.552;13.436;2022-07-17T09:31:29;102065.47;;;18.69;60.17
18985;BME280;9626;52.552;13.436;2022-07-17T09:33:56;102061.97;;;18.38;58.69
18985;BME280;9626;52.552;13.436;2022-07-17T09:36:22;102062.47;;;17.92;60.37
18985;BME280;9626;52.552;13.436;2022-07-17T09:38:52;102062.69;;;17.82;59.90
18985;BME280;9626;52.552;13.436;2022-07-17T09:41:19;102056.25;;;17.56;61.01
18985;BME280;9626;52.552;13.436;2022-07-17T09:43:52;102058.16;;;17.18;63.00
18985;BME280;9626;52.552;13.436;2022-07-17T09:48:49;102049.84;;;16.93;64.65
18985;BME280;9626;52.552;13.436;2022-07-17T09:51:20;102049.25;;;17.16;63.78
18985;BME280;9626;52.552;13.436;2022-07-17T09:53:47;102046.91;;;17.04;64.20
18985;BME280;9626;52.552;13.436;2022-07-17T09:56:16;102051.38;;;17.38;64.06
18985;BME280;9626;52.552;13.436;2022-07-17T09:58:45;102053.09;;;17.40;63.53
18985;BME280;9626;52.552;13.436;2022-07-17T10:01:14;102052.19;;;17.42;63.31
18985;BME280;9626;52.552;13.436;2022-07-17T10:03:41;102053.81;;;17.47;63.09
18985;BME280;9626;52.552;13.436;2022-07-17T10:06:09;102041.75;;;17.31;64.38
18985;BME280;9626;52.552;13.436;2022-07-17T10:08:35;102052.47;;;17.31;64.12
18985;BME280;9626;52.552;13.436;2022-07-17T10:11:00;102051.31;;;17.41;62.97
18985;BME280;9626;52.552;13.436;2022-07-17T10:13:27;102047.63;;;17.78;61.72
18985;BME280;9626;52.552;13.436;2022-07-17T10:15:54;102054.72;;;18.12;59.80
18985;BME280;9626;52.552;13.436;2022-07-17T10:18:20;102049.44;;;17.76;60.75
18985;BME280;9626;52.552;13.436;2022-07-17T10:20:46;102049.03;;;17.93;60.57
18985;BME280;9626;52.552;13.436;2022-07-17T10:23:16;102050.53;;;18.02;59.15
18985;BME280;9626;52.552;13.436;2022-07-17T10:25:41;102059.69;;;17.95;60.66
18985;BME280;9626;52.552;13.436;2022-07-17T10:28:08;102056.81;;;17.68;60.98
18985;BME280;9626;52.552;13.436;2022-07-17T10:30:34;102060.59;;;17.61;61.49
18985;BME280;9626;52.552;13.436;2022-07-17T10:33:04;102057.97;;;17.90;61.07
18985;BME280;9626;52.552;13.436;2022-07-17T10:35:42;102053.28;;;17.67;60.97
18985;BME280;9626;52.552;13.436;2022-07-17T10:38:12;102049.50;;;17.74;59.85
18985;BME280;9626;52.552;13.436;2022-07-17T10:40:38;102047.50;;;18.14;58.74
18985;BME280;9626;52.552;13.436;2022-07-17T10:43:05;102049.75;;;17.98;58.50
18985;BME280;9626;52.552;13.436;2022-07-17T10:45:33;102041.22;;;18.15;58.61
18985;BME280;9626;52.552;13.436;2022-07-17T10:48:01;102056.94;;;18.28;58.24
18985;BME280;9626;52.552;13.436;2022-07-17T10:53:22;102046.81;;;17.74;58.40
18985;BME280;9626;52.552;13.436;2022-07-17T10:55:56;102055.72;;;18.08;57.59
18985;BME280;9626;52.552;13.436;2022-07-17T10:58:30;102049.31;;;18.14;57.60
18985;BME280;9626;52.552;13.436;2022-07-17T11:03:29;102054.19;;;18.29;56.41
18985;BME280;9626;52.552;13.436;2022-07-17T11:05:55;102033.16;;;18.45;56.84
18985;BME280;9626;52.552;13.436;2022-07-17T11:08:30;102039.19;;;18.80;55.41
18985;BME280;9626;52.552;13.436;2022-07-17T11:10:55;102035.47;;;18.84;54.30
18985;BME280;9626;52.552;13.436;2022-07-17T11:13:21;102045.97;;;18.64;54.82
18985;BME280;9626;52.552;13.436;2022-07-17T11:15:47;102031.38;;;18.44;56.69
18985;BME280;9626;52.552;13.436;2022-07-17T11:18:18;102033.59;;;18.88;56.43
18985;BME280;9626;52.552;13.436;2022-07-17T11:20:59;102036.94;;;19.21;54.76
18985;BME280;9626;52.552;13.436;2022-07-17T11:23:28;102039.94;;;19.12;52.20
18985;BME280;9626;52.552;13.436;2022-07-17T11:28:47;102045.41;;;19.09;51.93
18985;BME280;9626;52.552;13.436;2022-07-17T11:31:21;102041.38;;;18.96;54.08
18985;BME280;9626;52.552;13.436;2022-07-17T11:36:26;102033.84;;;19.07;53.72
18985;BME280;9626;52.552;13.436;2022-07-17T11:38:55;102021.75;;;19.20;53.25
18985;BME280;9626;52.552;13.436;2022-07-17T11:41:21;102037.44;;;19.33;52.51
18985;BME280;9626;52.552;13.436;2022-07-17T11:43:56;102034.25;;;19.21;52.76
18985;BME280;9626;52.552;13.436;2022-07-17T11:46:22;102033.34;;;18.96;53.75
18985;BME280;9626;52.552;13.436;2022-07-17T11:48:48;102032.88;;;18.81;54.35
18985;BME280;9626;52.552;13.436;2022-07-17T11:51:13;102032.50;;;19.20;53.82
18985;BME280;9626;52.552;13.436;2022-07-17T11:53:39;102029.97;;;19.41;52.38
18985;BME280;9626;52.552;13.436;2022-07-17T11:56:06;102034.41;;;19.67;51.27
18985;BME280;9626;52.552;13.436;2022-07-17T11:58:43;102032.97;;;19.84;50.68
18985;BME280;9626;52.552;13.436;2022-07-17T12:01:09;102026.00;;;20.02;50.60
18985;BME280;9626;52.552;13.436;2022-07-17T12:03:34;102025.03;;;20.04;50.48
18985;BME280;9626;52.552;13.436;2022-07-17T12:06:00;102026.81;;;20.04;50.43
18985;BME280;9626;52.552;13.436;2022-07-17T12:08:25;102029.03;;;20.16;49.91
18985;BME280;9626;52.552;13.436;2022-07-17T12:13:53;102024.94;;;19.82;50.13
18985;BME280;9626;52.552;13.436;2022-07-17T12:16:26;102022.50;;;20.00;50.42
18985;BME280;9626;52.552;13.436;2022-07-17T12:19:22;102027.38;;;20.12;50.54
18985;BME280;9626;52.552;13.436;2022-07-17T12:22:04;102031.66;;;20.18;49.66
18985;BME280;9626;52.552;13.436;2022-07-17T12:24:30;102037.66;;;20.24;48.22
18985;BME280;9626;52.552;13.436;2022-07-17T12:26:58;102035.81;;;20.26;47.41
18985;BME280;9626;52.552;13.436;2022-07-17T12:29:25;102025.34;;;20.41;47.76
18985;BME280;9626;52.552;13.436;2022-07-17T12:32:08;102032.34;;;20.47;47.64
18985;BME280;9626;52.552;13.436;2022-07-17T12:34:39;102030.75;;;20.41;47.29
18985;BME280;9626;52.552;13.436;2022-07-17T12:37:18;102020.44;;;20.30;47.36
18985;BME280;9626;52.552;13.436;2022-07-17T12:39:45;102019.97;;;20.19;48.03
18985;BME280;9626;52.552;13.436;2022-07-17T12:42:13;102003.97;;;20.16;47.56
18985;BME280;9626;52.552;13.436;2022-07-17T12:44:39;102003.75;;;20.20;48.41
18985;BME280;9626;52.552;13.436;2022-07-17T12:47:05;102004.91;;;20.37;48.13
18985;BME280;9626;52.552;13.436;2022-07-17T12:49:30;101999.06;;;20.49;47.88
18985;BME280;9626;52.552;13.436;2022-07-17T12:51:56;102001.84;;;20.70;46.91
18985;BME280;9626;52.552;13.436;2022-07-17T12:54:22;101997.28;;;20.92;47.02
18985;BME280;9626;52.552;13.436;2022-07-17T12:56:47;101993.53;;;21.17;46.14
18985;BME280;9626;52.552;13.436;2022-07-17T12:59:13;101998.44;;;21.28;45.31
18985;BME280;9626;52.552;13.436;2022-07-17T13:01:39;101997.16;;;21.37;45.59